Time;durP1;ratioP1;P1;durP2;ratioP2;P2;SDS_P1;SDS_P2;PMS_P1;PMS_P2;Temp;Humidity;BMP_temperature;BMP_pressure;BME280_temperature;BME280_humidity;BME280_pressure;Samples;Min_cycle;Max_cycle;Signal;HPM_P1;HPM_P2
2022/05/03 00:00:21;;;;;;;19.70;11.35;;;;;;;;;;4955163;28;20464;-65
2022/05/03 00:03:20;;;;;;;23.58;12.43;;;;;;;;;;4952984;28;20516;-65
2022/05/03 00:06:17;;;;;;;23.58;11.88;;;;;;;;;;4953018;28;20303;-66
2022/05/03 00:08:46;;;;;;;22.35;11.52;;;;;;;;;;4953205;28;20418;-66
2022/05/03 00:11:22;;;;;;;;;;;;;;;;;;4952982;28;20357;-65
2022/05/03 00:14:02;;;;;;;24.35;10.63;;;;;;;;;;4935487;28;20229;-65
2022/05/03 00:16:28;;;;;;;23.58;11.32;;;;;;;;;;4952916;28;20337;-65
2022/05/03 00:18:53;;;;;;;21.05;10.52;;;;;;;;;;4953049;28;20319;-67
2022/05/03 00:21:19;;;;;;;24.20;10.63;;;;;;;;;;4953049;28;20349;-65
2022/05/03 00:23:44;;;;;;;22.50;11.52;;;;;;;;;;4935128;28;20044;-65
2022/05/03 00:26:10;;;;;;;18.75;10.30;;;;;;;;;;4935421;28;20417;-65
2022/05/03 00:28:38;;;;;;;21.85;10.82;;;;;;;;;;4935277;28;20544;-65
2022/05/03 00:31:04;;;;;;;21.35;10.43;;;;;;;;;;4954012;28;20378;-66
2022/05/03 00:33:32;;;;;;;22.45;11.02;;;;;;;;;;4936060;28;20056;-66
2022/05/03 00:35:58;;;;;;;21.40;10.43;;;;;;;;;;4950905;28;20116;-66
2022/05/03 00:38:23;;;;;;;20.42;10.57;;;;;;;;;;4953490;28;20429;-65
2022/05/03 00:40:53;;;;;;;20.58;9.93;;;;;;;;;;4953447;28;20450;-65
2022/05/03 00:43:45;;;;;;;20.05;10.25;;;;;;;;;;4934590;28;20565;-65
2022/05/03 00:46:14;;;;;;;18.13;9.90;;;;;;;;;;4921695;28;20030;-65
2022/05/03 00:49:09;;;;;;;22.90;10.63;;;;;;;;;;4935074;28;20369;-66
2022/05/03 00:51:44;;;;;;;23.70;11.07;;;;;;;;;;4952292;28;20348;-65
2022/05/03 00:54:41;;;;;;;21.42;10.90;;;;;;;;;;4952575;28;20353;-66
2022/05/03 00:57:20;;;;;;;20.88;9.95;;;;;;;;;;4934612;28;20461;-65
2022/05/03 01:00:05;;;;;;;21.40;10.73;;;;;;;;;;4932290;28;20464;-66
2022/05/03 01:03:01;;;;;;;21.08;10.07;;;;;;;;;;4949122;28;20302;-65
2022/05/03 01:05:28;;;;;;;19.10;10.45;;;;;;;;;;4953759;28;20417;-67
2022/05/03 01:08:05;;;;;;;17.33;9.93;;;;;;;;;;4953024;28;20412;-65
2022/05/03 01:11:09;;;;;;;23.30;10.15;;;;;;;;;;4950953;28;20047;-65
2022/05/03 01:13:45;;;;;;;17.73;9.40;;;;;;;;;;4967052;28;20050;-65
2022/05/03 01:16:34;;;;;;;21.33;10.38;;;;;;;;;;4951691;28;20361;-65
2022/05/03 01:19:15;;;;;;;22.73;10.15;;;;;;;;;;4951920;28;20364;-65
2022/05/03 01:22:03;;;;;;;16.60;9.77;;;;;;;;;;4934910;28;20437;-65
2022/05/03 01:24:32;;;;;;;18.65;9.90;;;;;;;;;;4966881;28;20364;-66
2022/05/03 01:27:19;;;;;;;16.90;9.02;;;;;;;;;;4951851;28;20388;-65
2022/05/03 01:29:46;;;;;;;20.27;9.77;;;;;;;;;;4953006;28;20124;-65
2022/05/03 01:32:12;;;;;;;18.30;9.80;;;;;;;;;;4952178;28;20421;-66
2022/05/03 01:34:40;;;;;;;21.40;9.07;;;;;;;;;;4951418;28;20464;-65
2022/05/03 01:37:30;;;;;;;23.75;10.73;;;;;;;;;;4966125;28;20052;-65
2022/05/03 01:40:05;;;;;;;19.02;10.00;;;;;;;;;;4934356;28;20073;-65
2022/05/03 01:42:59;;;;;;;17.90;9.40;;;;;;;;;;4951163;28;20033;-66
2022/05/03 01:45:36;;;;;;;20.40;9.82;;;;;;;;;;4951366;28;20368;-65
2022/05/03 01:48:18;;;;;;;19.30;9.55;;;;;;;;;;4952991;28;20463;-65
2022/05/03 01:51:00;;;;;;;18.08;9.30;;;;;;;;;;4965856;28;20369;-65
2022/05/03 01:53:36;;;;;;;21.55;10.15;;;;;;;;;;4967180;28;20333;-66
2022/05/03 01:56:35;;;;;;;16.17;9.43;;;;;;;;;;4966995;28;20403;-65
2022/05/03 01:59:07;;;;;;;20.88;9.95;;;;;;;;;;4965776;28;20394;-65
2022/05/03 02:01:42;;;;;;;20.13;9.50;;;;;;;;;;4952011;28;20325;-66
2022/05/03 02:04:41;;;;;;;16.13;9.52;;;;;;;;;;4952084;28;20368;-65
2022/05/03 02:07:38;;;;;;;19.80;9.05;;;;;;;;;;4950896;28;20473;-65
2022/05/03 02:10:05;;;;;;;18.08;9.48;;;;;;;;;;4940337;28;20392;-66
2022/05/03 02:12:31;;;;;;;18.42;9.00;;;;;;;;;;4950386;28;20548;-66
2022/05/03 02:15:06;;;;;;;19.08;9.68;;;;;;;;;;4950779;28;20533;-66
2022/05/03 02:17:52;;;;;;;18.83;8.93;;;;;;;;;;4950630;28;20492;-66
2022/05/03 02:20:31;;;;;;;20.48;10.88;;;;;;;;;;4951969;28;20029;-65
2022/05/03 02:23:18;;;;;;;18.30;8.75;;;;;;;;;;4949187;28;20349;-65
2022/05/03 02:26:21;;;;;;;19.05;9.43;;;;;;;;;;4950602;28;20396;-66
2022/05/03 02:29:00;;;;;;;16.17;7.97;;;;;;;;;;4950686;28;20389;-65
2022/05/03 02:31:39;;;;;;;16.08;8.43;;;;;;;;;;4932965;28;20465;-65
2022/05/03 02:34:16;;;;;;;15.25;8.55;;;;;;;;;;4965330;28;20074;-65
2022/05/03 02:36:45;;;;;;;19.85;9.63;;;;;;;;;;4952129;28;20377;-66
2022/05/03 02:39:12;;;;;;;17.83;8.77;;;;;;;;;;4965547;28;20328;-65
2022/05/03 02:41:39;;;;;;;16.15;9.05;;;;;;;;;;4950114;28;20500;-65
2022/05/03 02:44:05;;;;;;;16.30;9.02;;;;;;;;;;4951609;28;20432;-66
2022/05/03 02:47:29;;;;;;;19.02;8.80;;;;;;;;;;4950150;28;20416;-65
2022/05/03 02:50:00;;;;;;;15.35;7.85;;;;;;;;;;4909047;28;20330;-65
2022/05/03 02:52:44;;;;;;;16.25;8.90;;;;;;;;;;4909309;28;20433;-66
2022/05/03 02:55:38;;;;;;;15.23;8.13;;;;;;;;;;4934737;28;20482;-65
2022/05/03 02:58:12;;;;;;;16.33;8.63;;;;;;;;;;4965302;28;20056;-66
2022/05/03 03:04:02;;;;;;;16.10;7.82;;;;;;;;;;4950310;28;20337;-65
2022/05/03 03:06:34;;;;;;;13.68;8.30;;;;;;;;;;4950708;28;20447;-65
2022/05/03 03:09:00;;;;;;;13.57;7.75;;;;;;;;;;4949977;28;20429;-65
2022/05/03 03:11:31;;;;;;;15.73;7.70;;;;;;;;;;4949633;28;20409;-65
2022/05/03 03:14:10;;;;;;;14.50;8.43;;;;;;;;;;4950794;28;20088;-66
2022/05/03 03:16:43;;;;;;;14.38;7.75;;;;;;;;;;4950863;28;20370;-66
2022/05/03 03:19:33;;;;;;;14.57;8.15;;;;;;;;;;4949796;28;20369;-65
2022/05/03 03:22:00;;;;;;;17.38;8.32;;;;;;;;;;4949704;28;20450;-66
2022/05/03 03:24:28;;;;;;;15.57;8.05;;;;;;;;;;4950308;28;20034;-66
2022/05/03 03:26:54;;;;;;;14.60;8.38;;;;;;;;;;4964648;28;20379;-66
2022/05/03 03:29:22;;;;;;;13.88;7.07;;;;;;;;;;4964081;28;20584;-65
2022/05/03 03:31:48;;;;;;;14.13;7.45;;;;;;;;;;4965555;28;20536;-66
2022/05/03 03:34:14;;;;;;;17.70;8.63;;;;;;;;;;4949354;28;20429;-66
2022/05/03 03:36:40;;;;;;;15.35;8.52;;;;;;;;;;4931722;28;20458;-65
2022/05/03 03:39:05;;;;;;;13.63;7.18;;;;;;;;;;4964713;28;20440;-65
2022/05/03 03:41:31;;;;;;;15.05;7.93;;;;;;;;;;4950293;28;20468;-65
2022/05/03 03:43:56;;;;;;;14.75;7.57;;;;;;;;;;4949777;28;20409;-66
2022/05/03 03:46:21;;;;;;;14.88;7.60;;;;;;;;;;4949440;28;20053;-65
2022/05/03 03:48:47;;;;;;;14.93;8.13;;;;;;;;;;4964475;28;20336;-66
2022/05/03 03:51:14;;;;;;;14.65;7.75;;;;;;;;;;4949557;28;20510;-65
2022/05/03 03:53:40;;;;;;;13.90;7.35;;;;;;;;;;4949673;28;20371;-65
2022/05/03 03:56:05;;;;;;;13.30;7.20;;;;;;;;;;4964221;28;20532;-66
2022/05/03 03:58:31;;;;;;;15.85;7.57;;;;;;;;;;4948017;28;20417;-65
2022/05/03 04:00:56;;;;;;;11.65;6.75;;;;;;;;;;4964022;28;20355;-65
2022/05/03 04:03:22;;;;;;;10.35;6.93;;;;;;;;;;4949728;28;20486;-66
2022/05/03 04:05:48;;;;;;;14.85;7.95;;;;;;;;;;4964061;28;20445;-66
2022/05/03 04:08:13;;;;;;;13.55;6.65;;;;;;;;;;4949583;28;20507;-66
2022/05/03 04:10:38;;;;;;;17.38;8.15;;;;;;;;;;4949182;28;20433;-65
2022/05/03 04:13:05;;;;;;;13.60;7.35;;;;;;;;;;4949235;28;20456;-65
2022/05/03 04:15:32;;;;;;;15.43;7.60;;;;;;;;;;4964307;28;20443;-65
2022/05/03 04:17:58;;;;;;;14.90;6.93;;;;;;;;;;4949079;28;20472;-65
2022/05/03 04:20:24;;;;;;;15.13;7.10;;;;;;;;;;4963838;28;20536;-66
2022/05/03 04:22:49;;;;;;;12.40;6.35;;;;;;;;;;4964055;28;20424;-65
2022/05/03 04:25:15;;;;;;;13.70;7.70;;;;;;;;;;4949326;28;20433;-66
2022/05/03 04:27:41;;;;;;;10.70;6.47;;;;;;;;;;4948905;28;20365;-65
2022/05/03 04:30:06;;;;;;;12.07;7.30;;;;;;;;;;4950380;28;20346;-65
2022/05/03 04:32:32;;;;;;;15.63;7.18;;;;;;;;;;4948564;28;20418;-66
2022/05/03 04:34:59;;;;;;;15.35;6.97;;;;;;;;;;4949612;28;20022;-66
2022/05/03 04:37:25;;;;;;;11.07;7.03;;;;;;;;;;4948837;28;20394;-65
2022/05/03 04:39:50;;;;;;;10.93;6.80;;;;;;;;;;4948813;28;20466;-65
2022/05/03 04:42:16;;;;;;;12.02;7.13;;;;;;;;;;4948911;28;20056;-65
2022/05/03 04:44:41;;;;;;;14.05;7.20;;;;;;;;;;4949126;28;20081;-65
2022/05/03 04:47:06;;;;;;;13.70;7.10;;;;;;;;;;4952861;28;20523;-66
2022/05/03 04:49:31;;;;;;;13.20;7.22;;;;;;;;;;4952339;28;20448;-66
2022/05/03 04:51:57;;;;;;;16.00;7.65;;;;;;;;;;4952249;28;20502;-66
2022/05/03 04:54:23;;;;;;;13.05;7.45;;;;;;;;;;4952565;28;20408;-66
2022/05/03 04:57:01;;;;;;;15.88;7.80;;;;;;;;;;4952399;28;20490;-65
2022/05/03 04:59:26;;;;;;;13.15;6.95;;;;;;;;;;4952234;28;20396;-65
2022/05/03 05:01:51;;;;;;;11.77;6.80;;;;;;;;;;4952333;28;20085;-66
2022/05/03 05:04:17;;;;;;;15.40;7.53;;;;;;;;;;4952321;28;20447;-65
2022/05/03 05:06:42;;;;;;;11.18;6.57;;;;;;;;;;4953368;28;20430;-66
2022/05/03 05:09:07;;;;;;;13.88;6.47;;;;;;;;;;4952244;28;20456;-65
2022/05/03 05:11:33;;;;;;;11.75;6.47;;;;;;;;;;4951376;28;20529;-65
2022/05/03 05:13:58;;;;;;;13.90;7.13;;;;;;;;;;4953728;28;20344;-66
2022/05/03 05:16:23;;;;;;;13.07;6.78;;;;;;;;;;4951721;28;20421;-66
2022/05/03 05:18:49;;;;;;;12.35;6.90;;;;;;;;;;4952600;28;20096;-65
2022/05/03 05:21:15;;;;;;;12.45;6.72;;;;;;;;;;4951315;28;20518;-66
2022/05/03 05:23:40;;;;;;;12.02;6.70;;;;;;;;;;4951860;28;20483;-66
2022/05/03 05:26:05;;;;;;;16.02;7.85;;;;;;;;;;4952121;28;20404;-65
2022/05/03 05:28:31;;;;;;;12.23;7.20;;;;;;;;;;4951634;28;20421;-65
2022/05/03 05:30:56;;;;;;;11.70;7.68;;;;;;;;;;4933960;28;20052;-65
2022/05/03 05:33:22;;;;;;;12.38;6.70;;;;;;;;;;4951625;28;20389;-66
2022/05/03 05:35:49;;;;;;;11.15;6.65;;;;;;;;;;4951609;28;20085;-66
2022/05/03 05:38:15;;;;;;;12.95;6.70;;;;;;;;;;4967009;28;20352;-66
2022/05/03 05:40:41;;;;;;;13.60;7.43;;;;;;;;;;4966353;28;20340;-65
2022/05/03 05:43:06;;;;;;;11.23;6.95;;;;;;;;;;4951305;28;20341;-66
2022/05/03 05:45:32;;;;;;;11.57;6.13;;;;;;;;;;4952359;28;20339;-65
2022/05/03 05:47:57;;;;;;;14.60;7.68;;;;;;;;;;4951142;28;20421;-66
2022/05/03 05:50:23;;;;;;;13.63;6.63;;;;;;;;;;4951798;28;20026;-65
2022/05/03 05:55:32;;;;;;;15.35;7.35;;;;;;;;;;4951840;28;20452;-66
2022/05/03 05:57:58;;;;;;;14.73;7.47;;;;;;;;;;4950616;28;20413;-66
2022/05/03 06:00:23;;;;;;;15.38;7.95;;;;;;;;;;4950893;28;20444;-66
2022/05/03 06:02:48;;;;;;;10.60;6.72;;;;;;;;;;4951338;28;20033;-65
2022/05/03 06:05:13;;;;;;;15.32;6.90;;;;;;;;;;4966198;28;20132;-66
2022/05/03 06:07:39;;;;;;;14.02;7.68;;;;;;;;;;4966176;28;20347;-65
2022/05/03 06:10:05;;;;;;;12.85;6.75;;;;;;;;;;4950357;28;20535;-66
2022/05/03 06:12:31;;;;;;;16.35;7.22;;;;;;;;;;4950938;28;20495;-65
2022/05/03 06:14:56;;;;;;;13.10;7.43;;;;;;;;;;4952070;28;20081;-65
2022/05/03 06:17:21;;;;;;;19.05;7.43;;;;;;;;;;4950486;28;20058;-66
2022/05/03 06:19:47;;;;;;;13.95;7.65;;;;;;;;;;4966038;28;20436;-65
2022/05/03 06:22:13;;;;;;;12.88;7.70;;;;;;;;;;4951069;28;20460;-65
2022/05/03 06:24:39;;;;;;;14.68;7.35;;;;;;;;;;4951084;28;20412;-66
2022/05/03 06:27:05;;;;;;;15.93;7.13;;;;;;;;;;4951101;28;20586;-65
2022/05/03 06:29:34;;;;;;;14.63;7.32;;;;;;;;;;4950718;28;20401;-65
2022/05/03 06:31:59;;;;;;;13.57;6.20;;;;;;;;;;4951248;28;20356;-66
2022/05/03 06:34:25;;;;;;;12.52;7.63;;;;;;;;;;4951106;28;20344;-65
2022/05/03 06:36:51;;;;;;;13.15;6.88;;;;;;;;;;4932817;28;20474;-65
2022/05/03 06:39:16;;;;;;;11.55;6.80;;;;;;;;;;4951253;28;20334;-65
2022/05/03 06:41:41;;;;;;;12.13;7.45;;;;;;;;;;4950738;28;20586;-66
2022/05/03 06:44:06;;;;;;;12.70;7.60;;;;;;;;;;4950447;28;20467;-65
2022/05/03 06:46:32;;;;;;;13.88;6.70;;;;;;;;;;4950629;28;20510;-66
2022/05/03 06:48:57;;;;;;;15.02;7.38;;;;;;;;;;4951569;28;20022;-66
2022/05/03 06:51:23;;;;;;;11.63;7.43;;;;;;;;;;4950278;28;20349;-66
2022/05/03 06:53:48;;;;;;;11.93;6.88;;;;;;;;;;4950812;28;20215;-65
2022/05/03 06:56:14;;;;;;;11.40;6.50;;;;;;;;;;4948391;28;20333;-65
2022/05/03 06:58:40;;;;;;;14.60;6.65;;;;;;;;;;4950026;28;20499;-65
2022/05/03 07:01:14;;;;;;;14.98;7.97;;;;;;;;;;4950109;28;20026;-65
2022/05/03 07:03:40;;;;;;;15.80;7.15;;;;;;;;;;4950031;28;20562;-66
2022/05/03 07:06:06;;;;;;;13.40;6.93;;;;;;;;;;4950232;28;20492;-65
2022/05/03 07:08:32;;;;;;;18.70;7.65;;;;;;;;;;4948984;28;20519;-65
2022/05/03 07:10:57;;;;;;;13.10;6.97;;;;;;;;;;4949588;28;20460;-65
2022/05/03 07:13:24;;;;;;;12.68;6.63;;;;;;;;;;4949718;28;20109;-66
2022/05/03 07:15:54;;;;;;;13.52;7.00;;;;;;;;;;4950950;28;20096;-65
2022/05/03 07:23:48;;;;;;;14.43;7.05;;;;;;;;;;4950323;28;20412;-65
2022/05/03 07:26:13;;;;;;;14.35;6.90;;;;;;;;;;4949512;28;20456;-66
2022/05/03 07:28:39;;;;;;;13.75;7.03;;;;;;;;;;4949226;28;20519;-65
2022/05/03 07:31:04;;;;;;;11.32;6.55;;;;;;;;;;4949237;28;20519;-66
2022/05/03 07:33:30;;;;;;;10.90;6.15;;;;;;;;;;4947869;28;20371;-66
2022/05/03 07:35:55;;;;;;;11.45;6.65;;;;;;;;;;4950056;28;20052;-65
2022/05/03 07:38:20;;;;;;;13.10;6.65;;;;;;;;;;4949860;28;20448;-65
2022/05/03 07:40:46;;;;;;;14.25;6.43;;;;;;;;;;4949525;28;20364;-65
2022/05/03 07:43:11;;;;;;;11.35;6.20;;;;;;;;;;4948261;28;20452;-66
2022/05/03 07:45:36;;;;;;;12.02;6.55;;;;;;;;;;4949483;28;20447;-65
2022/05/03 07:48:03;;;;;;;10.48;6.63;;;;;;;;;;4949187;28;20033;-65
2022/05/03 07:50:28;;;;;;;10.68;6.30;;;;;;;;;;4950836;28;20373;-65
2022/05/03 07:52:54;;;;;;;10.85;6.53;;;;;;;;;;4949518;28;20365;-65
2022/05/03 07:55:19;;;;;;;11.07;5.72;;;;;;;;;;4950588;28;20029;-65
2022/05/03 07:57:44;;;;;;;8.85;5.78;;;;;;;;;;4964580;28;20468;-65
2022/05/03 08:00:10;;;;;;;10.07;6.05;;;;;;;;;;4949282;28;20336;-66
2022/05/03 08:02:35;;;;;;;12.00;6.25;;;;;;;;;;4949370;28;20399;-65
2022/05/03 08:05:01;;;;;;;10.90;5.90;;;;;;;;;;4949459;28;20471;-65
2022/05/03 08:07:26;;;;;;;9.00;5.53;;;;;;;;;;4948179;28;20548;-65
2022/05/03 08:09:53;;;;;;;11.40;6.07;;;;;;;;;;4949599;28;20439;-65
2022/05/03 08:12:19;;;;;;;10.82;6.32;;;;;;;;;;4948644;28;20396;-65
2022/05/03 08:14:46;;;;;;;9.18;5.35;;;;;;;;;;4947978;28;20448;-65
2022/05/03 08:17:11;;;;;;;11.00;6.68;;;;;;;;;;4949572;28;20456;-65
2022/05/03 08:19:37;;;;;;;10.80;6.40;;;;;;;;;;4950416;28;20550;-66
2022/05/03 08:22:02;;;;;;;11.93;6.20;;;;;;;;;;4954051;28;20583;-65
2022/05/03 08:24:27;;;;;;;12.18;6.13;;;;;;;;;;4952856;28;20429;-65
2022/05/03 08:26:53;;;;;;;13.20;5.63;;;;;;;;;;4953218;28;20447;-65
2022/05/03 08:29:19;;;;;;;12.20;6.32;;;;;;;;;;4953401;28;20448;-65
2022/05/03 08:31:44;;;;;;;9.55;5.22;;;;;;;;;;4967552;28;20444;-65
2022/05/03 08:34:10;;;;;;;9.73;5.47;;;;;;;;;;4953029;28;20034;-66
2022/05/03 08:36:35;;;;;;;11.48;5.82;;;;;;;;;;4954090;28;20431;-65
2022/05/03 08:42:02;;;;;;;10.50;5.70;;;;;;;;;;4915419;28;20503;-65
2022/05/03 08:44:28;;;;;;;10.73;6.07;;;;;;;;;;4952292;28;20337;-65
2022/05/03 08:46:56;;;;;;;10.50;5.68;;;;;;;;;;4952539;28;20495;-65
2022/05/03 08:49:23;;;;;;;10.65;6.10;;;;;;;;;;4954785;28;20124;-65
2022/05/03 08:51:49;;;;;;;9.57;4.90;;;;;;;;;;4952055;28;20089;-65
2022/05/03 08:54:15;;;;;;;10.20;5.32;;;;;;;;;;4952321;28;20425;-65
2022/05/03 08:56:40;;;;;;;8.13;5.35;;;;;;;;;;4952215;28;20444;-65
2022/05/03 08:59:05;;;;;;;8.25;5.05;;;;;;;;;;4966840;28;20487;-65
2022/05/03 09:01:31;;;;;;;11.15;5.50;;;;;;;;;;4952357;28;20057;-65
2022/05/03 09:03:57;;;;;;;11.32;5.75;;;;;;;;;;4952167;28;20472;-65
2022/05/03 09:06:43;;;;;;;8.57;5.65;;;;;;;;;;4952208;28;20500;-65
2022/05/03 09:09:12;;;;;;;9.48;5.50;;;;;;;;;;4952020;28;20429;-65
2022/05/03 09:12:10;;;;;;;9.40;5.55;;;;;;;;;;4951734;28;20425;-65
2022/05/03 09:14:38;;;;;;;9.13;5.95;;;;;;;;;;4931109;28;20457;-64
2022/05/03 09:17:04;;;;;;;9.95;4.90;;;;;;;;;;4952498;28;20417;-65
2022/05/03 09:19:29;;;;;;;10.98;5.38;;;;;;;;;;4952721;28;20334;-66
2022/05/03 09:24:52;;;;;;;10.52;5.53;;;;;;;;;;4954055;28;20372;-65
2022/05/03 09:27:18;;;;;;;7.40;5.40;;;;;;;;;;4951848;28;20414;-65
2022/05/03 09:30:03;;;;;;;7.97;4.45;;;;;;;;;;4966497;28;20360;-66
2022/05/03 09:32:35;;;;;;;9.48;5.10;;;;;;;;;;4951280;28;20424;-66
2022/05/03 09:35:02;;;;;;;7.40;4.53;;;;;;;;;;4966320;28;20435;-65
2022/05/03 09:37:41;;;;;;;9.15;5.28;;;;;;;;;;4952516;28;20330;-65
2022/05/03 09:40:12;;;;;;;9.82;5.30;;;;;;;;;;4952791;28;20329;-65
2022/05/03 09:42:40;;;;;;;8.35;4.78;;;;;;;;;;4951469;28;20038;-65
2022/05/03 09:45:08;;;;;;;10.05;5.28;;;;;;;;;;4951087;28;20453;-65
2022/05/03 09:47:46;;;;;;;7.55;4.60;;;;;;;;;;4951655;28;20377;-65
2022/05/03 09:50:24;;;;;;;6.47;4.25;;;;;;;;;;4966684;28;20332;-65
2022/05/03 09:52:50;;;;;;;9.50;4.63;;;;;;;;;;4951279;28;20388;-66
2022/05/03 09:55:28;;;;;;;8.38;4.80;;;;;;;;;;4951350;28;20567;-65
2022/05/03 09:57:54;;;;;;;8.75;4.78;;;;;;;;;;4950943;28;20057;-66
2022/05/03 10:00:19;;;;;;;8.63;4.93;;;;;;;;;;4951439;28;20033;-66
2022/05/03 10:02:47;;;;;;;8.23;5.20;;;;;;;;;;4951104;28;20432;-65
2022/05/03 10:05:13;;;;;;;6.28;4.45;;;;;;;;;;4952576;28;20440;-65
2022/05/03 10:07:40;;;;;;;9.07;4.53;;;;;;;;;;4965933;28;20348;-65
2022/05/03 10:10:07;;;;;;;7.70;4.63;;;;;;;;;;4950564;28;20048;-65
2022/05/03 10:12:35;;;;;;;9.85;4.97;;;;;;;;;;4951650;28;20392;-66
2022/05/03 10:15:00;;;;;;;7.97;4.47;;;;;;;;;;4950994;28;20517;-65
2022/05/03 10:20:40;;;;;;;7.80;4.18;;;;;;;;;;4951477;28;20141;-65
2022/05/03 10:23:25;;;;;;;8.48;4.55;;;;;;;;;;4946095;28;20400;-65
2022/05/03 10:25:51;;;;;;;6.47;4.38;;;;;;;;;;4950281;28;20038;-65
2022/05/03 10:28:16;;;;;;;10.18;4.85;;;;;;;;;;4951333;28;20447;-65
2022/05/03 10:31:04;;;;;;;9.57;4.32;;;;;;;;;;4950415;28;20507;-66
2022/05/03 10:33:29;;;;;;;7.53;4.28;;;;;;;;;;4950387;28;20348;-65
2022/05/03 10:35:54;;;;;;;10.30;4.70;;;;;;;;;;4950716;28;20314;-65
2022/05/03 10:38:38;;;;;;;10.50;4.97;;;;;;;;;;4950441;28;20424;-65
2022/05/03 10:41:05;;;;;;;6.78;4.20;;;;;;;;;;4949967;28;20468;-65
2022/05/03 10:43:30;;;;;;;8.70;4.82;;;;;;;;;;4951095;28;20341;-65
2022/05/03 10:45:57;;;;;;;7.15;3.53;;;;;;;;;;4950185;28;20344;-65
2022/05/03 10:48:28;;;;;;;8.23;4.18;;;;;;;;;;4950319;28;20343;-66
2022/05/03 10:51:01;;;;;;;7.65;4.25;;;;;;;;;;4950864;28;20348;-66
2022/05/03 10:53:34;;;;;;;8.63;4.35;;;;;;;;;;4964987;28;20045;-65
2022/05/03 10:56:13;;;;;;;6.90;3.97;;;;;;;;;;4950937;28;20405;-65
2022/05/03 10:58:40;;;;;;;7.47;4.28;;;;;;;;;;4950194;28;20313;-66
2022/05/03 11:01:11;;;;;;;7.28;3.85;;;;;;;;;;4950099;28;20475;-65
2022/05/03 11:03:39;;;;;;;6.88;4.40;;;;;;;;;;4949999;28;20345;-65
2022/05/03 11:06:21;;;;;;;7.55;4.13;;;;;;;;;;4949478;28;20580;-66
2022/05/03 11:11:39;;;;;;;7.05;4.32;;;;;;;;;;4950556;28;20335;-67
2022/05/03 11:14:24;;;;;;;7.95;4.38;;;;;;;;;;4949591;28;20420;-66
2022/05/03 11:17:01;;;;;;;9.02;4.32;;;;;;;;;;4964422;28;20448;-66
2022/05/03 11:19:27;;;;;;;6.28;3.85;;;;;;;;;;4949733;28;20388;-66
2022/05/03 11:21:52;;;;;;;7.07;4.40;;;;;;;;;;4949631;28;20356;-65
2022/05/03 11:24:18;;;;;;;9.15;4.15;;;;;;;;;;4949065;28;20444;-65
2022/05/03 11:26:44;;;;;;;5.97;3.72;;;;;;;;;;4949445;28;20346;-66
2022/05/03 11:29:11;;;;;;;6.45;3.70;;;;;;;;;;4949614;28;20148;-66
2022/05/03 11:31:37;;;;;;;5.28;3.55;;;;;;;;;;4949548;28;20337;-65
2022/05/03 11:34:03;;;;;;;6.32;3.78;;;;;;;;;;4950830;28;20460;-65
2022/05/03 11:36:29;;;;;;;6.32;3.88;;;;;;;;;;4949759;28;20436;-66
2022/05/03 11:38:55;;;;;;;6.82;3.95;;;;;;;;;;4950579;28;20436;-65
2022/05/03 11:41:25;;;;;;;10.00;4.40;;;;;;;;;;4950394;28;20399;-65
2022/05/03 11:43:51;;;;;;;6.25;3.90;;;;;;;;;;4950986;28;20305;-65
2022/05/03 11:46:17;;;;;;;7.40;3.63;;;;;;;;;;4949764;28;20084;-65
2022/05/03 11:48:43;;;;;;;6.45;3.78;;;;;;;;;;4949481;28;20325;-65
2022/05/03 11:56:43;;;;;;;7.35;3.95;;;;;;;;;;4938381;28;20361;-66
2022/05/03 11:59:09;;;;;;;6.93;4.03;;;;;;;;;;4953941;28;20464;-65
2022/05/03 12:01:35;;;;;;;5.82;3.70;;;;;;;;;;4967843;28;20380;-65
2022/05/03 12:04:02;;;;;;;6.05;3.53;;;;;;;;;;4953552;28;20074;-66
2022/05/03 12:06:43;;;;;;;7.93;3.70;;;;;;;;;;4954395;28;20437;-65
2022/05/03 12:09:10;;;;;;;6.05;3.80;;;;;;;;;;4953450;28;20344;-66
2022/05/03 12:12:42;;;;;;;5.88;3.70;;;;;;;;;;4941218;28;20487;-65
2022/05/03 12:14:33;;;;;;;5.95;3.80;;;;;;;;;;4953441;28;20332;-65
2022/05/03 12:16:59;;;;;;;4.82;3.28;;;;;;;;;;4953390;28;20539;-65
2022/05/03 12:19:24;;;;;;;6.30;3.38;;;;;;;;;;4952930;28;20425;-65
2022/05/03 12:21:50;;;;;;;6.68;3.88;;;;;;;;;;4953188;28;20503;-66
2022/05/03 12:24:15;;;;;;;6.35;3.25;;;;;;;;;;4953135;28;20377;-65
2022/05/03 12:26:41;;;;;;;5.88;3.63;;;;;;;;;;4953480;28;20137;-65
2022/05/03 12:29:07;;;;;;;6.65;3.83;;;;;;;;;;4953062;28;20436;-65
2022/05/03 12:31:36;;;;;;;4.93;3.70;;;;;;;;;;4952746;28;20329;-65
2022/05/03 12:34:07;;;;;;;6.15;3.30;;;;;;;;;;4952714;28;20452;-66
2022/05/03 12:36:44;;;;;;;4.70;3.22;;;;;;;;;;4952727;28;20475;-65
2022/05/03 12:39:14;;;;;;;4.30;2.95;;;;;;;;;;4953374;28;20432;-65
2022/05/03 12:41:41;;;;;;;7.38;3.42;;;;;;;;;;4952524;28;20029;-65
2022/05/03 12:44:14;;;;;;;6.18;3.00;;;;;;;;;;4951879;28;20546;-65
2022/05/03 12:46:40;;;;;;;5.85;3.17;;;;;;;;;;4952001;28;20441;-65
2022/05/03 12:49:11;;;;;;;5.63;3.53;;;;;;;;;;4952945;28;20471;-65
2022/05/03 12:51:37;;;;;;;4.78;3.00;;;;;;;;;;4951307;28;20360;-64
2022/05/03 12:54:04;;;;;;;5.13;2.75;;;;;;;;;;4952347;28;20377;-65
2022/05/03 12:59:15;;;;;;;5.88;3.40;;;;;;;;;;4953035;28;20515;-65
2022/05/03 13:01:42;;;;;;;6.20;3.83;;;;;;;;;;4952248;28;20428;-65
2022/05/03 13:04:08;;;;;;;5.78;3.05;;;;;;;;;;4952125;28;20030;-65
2022/05/03 13:06:34;;;;;;;7.05;3.65;;;;;;;;;;4952247;28;20353;-65
2022/05/03 13:08:59;;;;;;;6.68;3.50;;;;;;;;;;4952414;28;20061;-65
2022/05/03 13:11:24;;;;;;;5.60;3.15;;;;;;;;;;4951643;28;20353;-65
2022/05/03 13:13:50;;;;;;;5.55;3.50;;;;;;;;;;4952301;28;20034;-65
2022/05/03 13:16:15;;;;;;;5.80;3.53;;;;;;;;;;4952386;28;20436;-66
2022/05/03 13:18:41;;;;;;;9.07;3.53;;;;;;;;;;4952222;28;20409;-66
2022/05/03 13:21:06;;;;;;;5.07;3.35;;;;;;;;;;4952213;28;20342;-65
2022/05/03 13:23:31;;;;;;;5.78;3.28;;;;;;;;;;4952664;28;20464;-65
2022/05/03 13:25:57;;;;;;;4.75;3.25;;;;;;;;;;4951610;28;20380;-65
2022/05/03 13:28:22;;;;;;;6.07;3.40;;;;;;;;;;4953372;28;20056;-65
2022/05/03 13:30:47;;;;;;;3.50;2.72;;;;;;;;;;4951847;28;20523;-65
2022/05/03 13:33:13;;;;;;;6.65;3.10;;;;;;;;;;4951820;28;20423;-65
2022/05/03 13:41:06;;;;;;;5.90;3.40;;;;;;;;;;4951660;28;20467;-65
2022/05/03 13:43:31;;;;;;;5.85;2.92;;;;;;;;;;4951664;28;20441;-65
2022/05/03 13:45:58;;;;;;;4.38;2.90;;;;;;;;;;4966002;28;20455;-65
2022/05/03 13:48:24;;;;;;;5.78;3.03;;;;;;;;;;4951462;28;20361;-65
2022/05/03 13:50:49;;;;;;;3.95;2.42;;;;;;;;;;4952747;28;20345;-66
2022/05/03 13:53:15;;;;;;;6.20;2.88;;;;;;;;;;4951533;28;20029;-65
2022/05/03 13:55:40;;;;;;;7.78;3.22;;;;;;;;;;4949931;28;20069;-65
2022/05/03 13:58:09;;;;;;;6.47;2.92;;;;;;;;;;4953500;28;20476;-65
2022/05/03 14:00:35;;;;;;;14.60;7.90;;;;;;;;;;4966123;28;20436;-64
2022/05/03 14:03:02;;;;;;;32.90;18.40;;;;;;;;;;4969279;28;20124;-64
2022/05/03 14:05:28;;;;;;;32.33;20.05;;;;;;;;;;4969560;28;20379;-64
2022/05/03 14:07:54;;;;;;;26.35;17.13;;;;;;;;;;4964965;28;20439;-65
2022/05/03 14:10:19;;;;;;;24.77;14.25;;;;;;;;;;4969756;28;20431;-64
2022/05/03 14:12:44;;;;;;;19.55;12.18;;;;;;;;;;4969606;28;20041;-64
2022/05/03 14:15:10;;;;;;;17.17;10.98;;;;;;;;;;4951150;28;20400;-64
2022/05/03 14:17:35;;;;;;;13.77;9.15;;;;;;;;;;4968999;28;20376;-65
2022/05/03 14:20:00;;;;;;;21.92;7.78;;;;;;;;;;4969126;28;20435;-65
2022/05/03 14:22:26;;;;;;;11.25;7.00;;;;;;;;;;4967131;28;20436;-65
2022/05/03 14:24:53;;;;;;;13.15;6.13;;;;;;;;;;4963580;28;20159;-65
2022/05/03 14:27:18;;;;;;;12.95;7.28;;;;;;;;;;4948159;28;20431;-65
2022/05/03 14:29:43;;;;;;;20.23;12.25;;;;;;;;;;4931537;28;20410;-64
2022/05/03 14:32:09;;;;;;;37.83;22.08;;;;;;;;;;4965949;28;20428;-65
2022/05/03 14:34:34;;;;;;;50.97;31.73;;;;;;;;;;4969593;28;20524;-66
2022/05/03 14:37:00;;;;;;;74.90;42.58;;;;;;;;;;4969241;28;20064;-65
2022/05/03 14:39:25;;;;;;;50.83;31.38;;;;;;;;;;4969350;28;20433;-66
2022/05/03 14:41:51;;;;;;;46.38;27.95;;;;;;;;;;4969322;28;20396;-65
2022/05/03 14:44:16;;;;;;;45.28;26.00;;;;;;;;;;4969890;28;20488;-66
2022/05/03 14:46:42;;;;;;;42.13;25.67;;;;;;;;;;4969132;28;20322;-65
2022/05/03 14:49:08;;;;;;;41.10;23.73;;;;;;;;;;4969215;28;20025;-66
2022/05/03 14:51:34;;;;;;;36.25;19.95;;;;;;;;;;4969061;28;20059;-66
2022/05/03 14:53:59;;;;;;;28.80;18.80;;;;;;;;;;4969149;28;20057;-66
2022/05/03 15:04:36;;;;;;;28.55;14.00;;;;;;;;;;4964133;28;20443;-65
2022/05/03 15:07:03;;;;;;;21.55;12.63;;;;;;;;;;4970240;28;20112;-65
2022/05/03 15:09:28;;;;;;;19.35;12.13;;;;;;;;;;4968507;28;20420;-66
2022/05/03 15:11:54;;;;;;;19.80;11.48;;;;;;;;;;4968481;28;20401;-65
2022/05/03 15:14:19;;;;;;;19.02;10.52;;;;;;;;;;4968820;28;20506;-66
2022/05/03 15:16:44;;;;;;;13.75;9.70;;;;;;;;;;4968665;28;20452;-66
2022/05/03 15:19:10;;;;;;;15.77;10.13;;;;;;;;;;4969003;28;20436;-66
2022/05/03 15:21:35;;;;;;;21.85;10.50;;;;;;;;;;4969649;28;20503;-66
2022/05/03 15:26:44;;;;;;;15.35;9.60;;;;;;;;;;4967174;28;20052;-66
2022/05/03 15:29:15;;;;;;;12.32;8.13;;;;;;;;;;4967915;28;20420;-66
2022/05/03 15:31:40;;;;;;;13.90;8.05;;;;;;;;;;4968637;28;20476;-65
2022/05/03 15:34:05;;;;;;;12.05;7.63;;;;;;;;;;4969243;28;20476;-66